createdAt,value
2022-10-13T00:00:43.757Z,9.20
2022-10-13T00:03:11.285Z,9.10
2022-10-13T00:05:42.996Z,9.10
2022-10-13T00:08:10.007Z,9.00
2022-10-13T00:10:42.284Z,9.00
2022-10-13T00:13:11.984Z,9.10
2022-10-13T00:15:40.538Z,9.10
2022-10-13T00:18:07.279Z,9.20
2022-10-13T00:20:35.448Z,9.30
2022-10-13T00:23:02.252Z,9.40
2022-10-13T00:25:28.825Z,9.40
2022-10-13T00:27:55.417Z,9.50
2022-10-13T00:30:27.108Z,9.50
2022-10-13T00:32:53.671Z,9.50
2022-10-13T00:35:20.266Z,9.40
2022-10-13T00:37:46.868Z,9.30
2022-10-13T00:40:13.492Z,9.20
2022-10-13T00:42:41.822Z,9.20
2022-10-13T00:45:17.553Z,9.30
2022-10-13T00:47:50.156Z,9.30
2022-10-13T00:50:20.120Z,9.30
2022-10-13T00:52:52.518Z,9.30
2022-10-13T00:55:26.108Z,9.30
2022-10-13T00:57:55.068Z,9.30
2022-10-13T01:00:30.317Z,9.40
2022-10-13T01:02:57.289Z,9.40
2022-10-13T01:05:24.827Z,9.40
2022-10-13T01:07:56.026Z,9.50
2022-10-13T01:10:56.764Z,9.50
2022-10-13T01:14:00.820Z,9.50
2022-10-13T01:16:30.267Z,9.40
2022-10-13T01:19:25.480Z,9.40
2022-10-13T01:22:13.602Z,9.40
2022-10-13T01:25:03.810Z,9.40
2022-10-13T01:28:04.680Z,9.40
2022-10-13T01:30:48.677Z,9.40
2022-10-13T01:33:30.348Z,9.30
2022-10-13T01:36:21.734Z,9.40
2022-10-13T01:39:00.879Z,9.30
2022-10-13T01:41:31.015Z,9.40
2022-10-13T01:44:17.439Z,9.40
2022-10-13T01:46:54.415Z,9.40
2022-10-13T01:49:27.220Z,9.50
2022-10-13T01:51:56.157Z,9.60
2022-10-13T01:54:22.807Z,9.60
2022-10-13T01:56:54.281Z,9.60
2022-10-13T01:59:23.816Z,9.60
2022-10-13T02:02:03.408Z,9.60
2022-10-13T02:05:10.493Z,9.50
2022-10-13T02:07:48.451Z,9.50
2022-10-13T02:10:33.912Z,9.50
2022-10-13T02:13:06.135Z,9.60
2022-10-13T02:15:40.563Z,9.70
2022-10-13T02:18:12.134Z,9.80
2022-10-13T02:20:41.334Z,9.80
2022-10-13T02:23:12.366Z,9.90
2022-10-13T02:25:40.399Z,10.00
2022-10-13T02:28:07.502Z,10.10
2022-10-13T02:30:42.525Z,10.10
2022-10-13T02:33:09.652Z,10.20
2022-10-13T02:35:37.558Z,10.30
2022-10-13T02:38:04.164Z,10.20
2022-10-13T02:40:30.828Z,10.20
2022-10-13T02:42:57.725Z,10.20
2022-10-13T02:45:24.281Z,10.20
2022-10-13T02:47:55.700Z,10.20
2022-10-13T02:50:22.335Z,10.20
2022-10-13T02:52:50.546Z,10.20
2022-10-13T02:55:17.233Z,10.20
2022-10-13T02:57:45.770Z,10.20
2022-10-13T03:00:13.070Z,10.20
2022-10-13T03:02:39.721Z,10.10
2022-10-13T03:05:06.492Z,10.10
2022-10-13T03:07:33.103Z,10.10
2022-10-13T03:09:59.653Z,10.10
2022-10-13T03:12:26.292Z,10.10
2022-10-13T03:14:52.932Z,10.10
2022-10-13T03:17:19.688Z,10.10
2022-10-13T03:19:46.307Z,10.10
2022-10-13T03:22:17.143Z,10.20
2022-10-13T03:24:43.925Z,10.20
2022-10-13T03:27:10.907Z,10.20
2022-10-13T03:29:37.719Z,10.20
2022-10-13T03:32:04.697Z,10.20
2022-10-13T03:34:31.349Z,10.20
2022-10-13T03:36:57.985Z,10.20
2022-10-13T03:39:24.851Z,10.20
2022-10-13T03:41:51.506Z,10.10
2022-10-13T03:44:18.122Z,10.00
2022-10-13T03:46:44.795Z,9.90
2022-10-13T03:49:11.808Z,9.80
2022-10-13T03:51:39.072Z,9.70
2022-10-13T03:54:05.867Z,9.70
2022-10-13T03:56:32.718Z,9.60
2022-10-13T03:59:00.699Z,9.50
2022-10-13T04:01:29.843Z,9.50
2022-10-13T04:03:58.227Z,9.40
2022-10-13T04:06:26.428Z,9.30
2022-10-13T04:08:53.115Z,9.20
2022-10-13T04:11:20.398Z,9.10
2022-10-13T04:13:50.861Z,9.10
2022-10-13T04:16:20.588Z,9.00
2022-10-13T04:18:55.317Z,9.00
2022-10-13T04:21:22.599Z,9.00
2022-10-13T04:23:49.495Z,9.00
2022-10-13T04:26:18.647Z,9.00
2022-10-13T04:28:47.214Z,9.10
2022-10-13T04:31:14.361Z,9.00
2022-10-13T04:33:41.365Z,9.10
2022-10-13T04:36:10.343Z,9.10
2022-10-13T04:38:37.018Z,9.20
2022-10-13T04:41:05.159Z,9.20
2022-10-13T04:43:33.186Z,9.20
2022-10-13T04:46:12.306Z,9.20
2022-10-13T04:48:39.142Z,9.20
2022-10-13T04:51:12.910Z,9.20
2022-10-13T04:53:40.380Z,9.20
2022-10-13T04:56:13.792Z,9.20
2022-10-13T04:58:41.761Z,9.30
2022-10-13T05:01:15.444Z,9.30
2022-10-13T05:03:45.809Z,9.30
2022-10-13T05:06:23.301Z,9.30
2022-10-13T05:08:55.999Z,9.40
2022-10-13T05:11:24.190Z,9.40
2022-10-13T05:13:50.975Z,9.50
2022-10-13T05:16:19.604Z,9.40
2022-10-13T05:18:46.563Z,9.50
2022-10-13T05:21:22.282Z,9.50
2022-10-13T05:23:49.325Z,9.50
2022-10-13T05:26:17.900Z,9.50
2022-10-13T05:28:45.405Z,9.50
2022-10-13T05:31:20.505Z,9.50
2022-10-13T05:33:48.105Z,9.50
2022-10-13T05:36:38.466Z,9.60
2022-10-13T05:39:07.661Z,9.60
2022-10-13T05:41:34.453Z,9.60
2022-10-13T05:44:07.212Z,9.50
2022-10-13T05:46:34.078Z,9.50
2022-10-13T05:49:01.009Z,9.50
2022-10-13T05:51:33.253Z,9.50
2022-10-13T05:54:06.077Z,9.50
2022-10-13T05:56:38.862Z,9.50
2022-10-13T05:59:08.001Z,9.60
2022-10-13T06:01:39.646Z,9.70
2022-10-13T06:04:18.825Z,9.70
2022-10-13T06:06:47.150Z,9.80
2022-10-13T06:09:13.787Z,9.90
2022-10-13T06:11:41.372Z,10.00
2022-10-13T06:14:07.942Z,10.10
2022-10-13T06:16:36.296Z,10.10
2022-10-13T06:19:04.105Z,10.20
2022-10-13T06:21:30.741Z,10.20
2022-10-13T06:23:57.548Z,10.20
2022-10-13T06:26:24.227Z,10.20
2022-10-13T06:28:54.446Z,10.20
2022-10-13T06:31:23.598Z,10.20
2022-10-13T06:33:50.237Z,10.30
2022-10-13T06:36:16.873Z,10.40
2022-10-13T06:38:43.521Z,10.40
2022-10-13T06:41:10.150Z,10.60
2022-10-13T06:43:40.310Z,10.70
2022-10-13T06:46:10.792Z,10.90
2022-10-13T06:48:37.848Z,11.10
2022-10-13T06:51:08.879Z,11.20
2022-10-13T06:53:35.734Z,11.40
2022-10-13T06:56:04.404Z,11.60
2022-10-13T06:58:31.120Z,11.80
2022-10-13T07:00:57.841Z,11.90
2022-10-13T07:03:25.265Z,12.10
2022-10-13T07:05:52.472Z,12.30
2022-10-13T07:08:19.344Z,12.40
2022-10-13T07:10:46.482Z,12.60
2022-10-13T07:13:13.127Z,12.70
2022-10-13T07:15:40.693Z,12.90
2022-10-13T07:18:07.618Z,13.20
2022-10-13T07:20:34.372Z,13.60
2022-10-13T07:23:01.201Z,14.00
2022-10-13T07:25:27.851Z,14.30
2022-10-13T07:27:54.546Z,14.60
2022-10-13T07:30:21.423Z,14.90
2022-10-13T07:32:48.433Z,15.10
2022-10-13T07:35:15.062Z,15.30
2022-10-13T07:37:41.767Z,15.40
2022-10-13T07:40:09.017Z,15.60
2022-10-13T07:42:35.693Z,15.70
2022-10-13T07:45:02.304Z,15.90
2022-10-13T07:47:29.671Z,15.90
2022-10-13T07:49:56.309Z,15.90
2022-10-13T07:52:23.302Z,16.00
2022-10-13T07:54:50.703Z,16.00
2022-10-13T07:57:17.448Z,16.10
2022-10-13T07:59:44.531Z,16.20
2022-10-13T08:02:13.328Z,16.30
2022-10-13T08:04:40.042Z,16.50
2022-10-13T08:07:07.226Z,16.60
2022-10-13T08:09:34.116Z,16.70
2022-10-13T08:12:01.914Z,16.70
2022-10-13T08:14:29.698Z,16.70
2022-10-13T08:16:59.768Z,16.60
2022-10-13T08:19:28.246Z,16.70
2022-10-13T08:21:59.595Z,16.60
2022-10-13T08:24:27.904Z,16.50
2022-10-13T08:26:55.137Z,16.60
2022-10-13T08:29:23.515Z,16.70
2022-10-13T08:31:52.752Z,16.70
2022-10-13T08:34:19.927Z,16.80
2022-10-13T08:36:47.237Z,17.10
2022-10-13T08:39:14.028Z,17.40
2022-10-13T08:41:46.705Z,17.70
2022-10-13T08:45:06.329Z,17.90
2022-10-13T08:47:18.388Z,17.90
2022-10-13T08:49:46.227Z,17.90
2022-10-13T08:52:22.852Z,18.20
2022-10-13T08:54:51.347Z,18.60
2022-10-13T08:57:20.545Z,19.10
2022-10-13T08:59:48.681Z,19.20
2022-10-13T09:02:29.145Z,19.30
2022-10-13T09:04:58.748Z,19.20
2022-10-13T09:07:29.153Z,18.90
2022-10-13T09:09:56.179Z,18.40
2022-10-13T09:12:25.219Z,18.30
2022-10-13T09:15:09.681Z,18.10
2022-10-13T09:17:38.859Z,17.90
2022-10-13T09:20:18.492Z,17.80
2022-10-13T09:22:59.789Z,17.90
2022-10-13T09:25:26.401Z,18.20
2022-10-13T09:27:57.916Z,18.60
2022-10-13T09:30:41.053Z,19.30
2022-10-13T09:33:13.566Z,20.00
2022-10-13T09:35:49.537Z,20.50
2022-10-13T09:38:21.571Z,21.10
2022-10-13T09:41:12.145Z,21.50
2022-10-13T09:43:43.256Z,21.70
2022-10-13T09:46:18.323Z,21.90
2022-10-13T09:48:50.294Z,22.30
2022-10-13T09:51:41.068Z,22.50
2022-10-13T09:55:04.720Z,22.60
2022-10-13T09:57:46.422Z,22.80
2022-10-13T10:00:24.879Z,23.00
2022-10-13T10:02:54.479Z,23.20
2022-10-13T10:05:24.385Z,23.20
2022-10-13T10:08:03.000Z,23.20
2022-10-13T10:10:34.657Z,23.10
2022-10-13T10:13:04.141Z,22.80
2022-10-13T10:15:44.828Z,22.50
2022-10-13T10:18:20.378Z,22.40
2022-10-13T10:22:00.069Z,22.40
2022-10-13T10:25:17.734Z,22.30
2022-10-13T10:28:09.558Z,22.10
2022-10-13T10:30:48.785Z,22.20
2022-10-13T10:33:35.707Z,22.50
2022-10-13T10:37:10.308Z,22.80
2022-10-13T10:40:01.802Z,22.90
2022-10-13T10:42:57.061Z,22.90
2022-10-13T10:45:30.457Z,22.40
2022-10-13T10:48:01.370Z,22.40
2022-10-13T10:50:31.267Z,22.30
2022-10-13T10:52:58.221Z,22.20
2022-10-13T10:55:46.263Z,21.90
2022-10-13T10:58:40.386Z,21.70
2022-10-13T11:01:33.098Z,21.80
2022-10-13T11:04:35.620Z,22.30
2022-10-13T11:07:03.857Z,21.90
2022-10-13T11:09:42.446Z,21.70
2022-10-13T11:12:21.499Z,22.00
2022-10-13T11:14:54.562Z,22.30
2022-10-13T11:17:32.379Z,22.60
2022-10-13T11:20:00.296Z,22.60
2022-10-13T11:22:28.511Z,22.60
2022-10-13T11:25:34.017Z,22.80
2022-10-13T11:28:00.980Z,23.00
2022-10-13T11:30:55.319Z,23.60
2022-10-13T11:33:40.333Z,24.00
2022-10-13T11:36:43.545Z,24.00
2022-10-13T11:39:26.653Z,24.10
2022-10-13T11:41:59.329Z,24.20
2022-10-13T11:44:58.284Z,24.20
2022-10-13T11:47:46.674Z,24.40
2022-10-13T11:50:38.205Z,24.20
2022-10-13T11:53:17.101Z,24.00
2022-10-13T11:55:58.455Z,23.80
2022-10-13T11:58:26.489Z,23.40
2022-10-13T12:01:06.685Z,23.00
2022-10-13T12:03:34.836Z,22.70
2022-10-13T12:06:35.536Z,22.70
2022-10-13T12:09:14.922Z,22.80
2022-10-13T12:11:41.580Z,22.50
2022-10-13T12:14:30.389Z,22.00
2022-10-13T12:16:58.473Z,21.90
2022-10-13T12:19:28.073Z,21.90
2022-10-13T12:21:57.695Z,22.40
2022-10-13T12:24:29.503Z,22.90
2022-10-13T12:26:57.406Z,23.30
2022-10-13T12:29:27.788Z,23.20
2022-10-13T12:31:58.098Z,22.80
2022-10-13T12:34:32.161Z,22.40
2022-10-13T12:37:21.344Z,22.00
2022-10-13T12:39:49.259Z,21.70
2022-10-13T12:42:16.923Z,21.60
2022-10-13T12:44:44.409Z,21.60
2022-10-13T12:47:35.958Z,21.50
2022-10-13T12:50:25.269Z,21.50
2022-10-13T12:53:14.522Z,21.40
2022-10-13T12:55:58.600Z,21.40
2022-10-13T12:58:28.019Z,21.60
2022-10-13T13:00:58.105Z,22.00
2022-10-13T13:03:29.166Z,22.10
2022-10-13T13:06:23.548Z,22.00
2022-10-13T13:09:28.115Z,21.80
2022-10-13T13:12:15.860Z,21.50
2022-10-13T13:14:44.078Z,21.20
2022-10-13T13:17:38.448Z,21.20
2022-10-13T13:20:32.723Z,21.30
2022-10-13T13:23:00.633Z,21.20
2022-10-13T13:25:27.361Z,21.50
2022-10-13T13:27:54.112Z,21.80
2022-10-13T13:30:23.220Z,21.90
2022-10-13T13:32:50.139Z,22.00
2022-10-13T13:35:16.907Z,21.70
2022-10-13T13:37:50.495Z,21.60
2022-10-13T13:40:20.536Z,21.40
2022-10-13T13:42:47.297Z,21.20
2022-10-13T13:45:19.117Z,21.20
2022-10-13T13:47:45.901Z,21.30
2022-10-13T13:50:25.155Z,21.40
2022-10-13T13:52:58.559Z,21.60
2022-10-13T13:55:26.751Z,21.60
2022-10-13T13:57:53.797Z,21.50
2022-10-13T14:00:20.818Z,21.50
2022-10-13T14:02:53.078Z,21.40
2022-10-13T14:05:19.784Z,21.40
2022-10-13T14:07:46.473Z,21.40
2022-10-13T14:10:13.082Z,21.30
2022-10-13T14:12:39.758Z,21.20
2022-10-13T14:15:07.302Z,21.00
2022-10-13T14:17:33.950Z,20.90
2022-10-13T14:20:00.623Z,20.80
2022-10-13T14:22:27.528Z,20.80
2022-10-13T14:24:54.241Z,20.70
2022-10-13T14:27:20.815Z,20.60
2022-10-13T14:29:47.429Z,20.50
2022-10-13T14:32:15.658Z,20.60
2022-10-13T14:34:42.649Z,20.60
2022-10-13T14:37:09.232Z,20.70
2022-10-13T14:39:35.842Z,20.90
2022-10-13T14:42:02.437Z,21.00
2022-10-13T14:44:29.049Z,21.00
2022-10-13T14:46:55.966Z,20.90
2022-10-13T14:49:22.824Z,20.90
2022-10-13T14:51:50.397Z,20.80
2022-10-13T14:54:17.723Z,20.80
2022-10-13T14:56:45.453Z,20.80
2022-10-13T14:59:12.436Z,20.90
2022-10-13T15:01:41.332Z,21.00
2022-10-13T15:04:08.298Z,21.00
2022-10-13T15:06:40.832Z,20.90
2022-10-13T15:11:41.282Z,20.90
2022-10-13T15:14:11.135Z,20.90
2022-10-13T15:16:38.020Z,20.90
2022-10-13T15:19:05.089Z,20.90
2022-10-13T15:21:31.752Z,20.80
2022-10-13T15:23:58.636Z,20.70
2022-10-13T15:26:25.246Z,20.70
2022-10-13T15:28:53.450Z,20.50
2022-10-13T15:31:22.085Z,20.30
2022-10-13T15:33:51.701Z,20.10
2022-10-13T15:36:22.082Z,20.00
2022-10-13T15:38:48.867Z,19.70
2022-10-13T15:41:16.151Z,19.50
2022-10-13T15:43:43.122Z,19.20
2022-10-13T15:46:21.652Z,19.00
2022-10-13T15:48:49.867Z,18.90
2022-10-13T15:51:19.443Z,18.80
2022-10-13T15:53:47.436Z,18.70
2022-10-13T15:56:14.307Z,18.70
2022-10-13T15:58:41.021Z,18.60
2022-10-13T16:01:09.361Z,18.50
2022-10-13T16:03:37.047Z,18.40
2022-10-13T16:06:05.829Z,18.20
2022-10-13T16:08:35.754Z,18.10
2022-10-13T16:11:07.952Z,18.00
2022-10-13T16:13:34.601Z,17.90
2022-10-13T16:16:01.663Z,17.80
2022-10-13T16:18:32.625Z,17.70
2022-10-13T16:20:59.299Z,17.60
2022-10-13T16:23:26.534Z,17.50
2022-10-13T16:25:53.218Z,17.40
2022-10-13T16:28:19.967Z,17.20
2022-10-13T16:30:46.651Z,17.10
2022-10-13T16:33:15.342Z,16.90
2022-10-13T16:35:42.051Z,16.80
2022-10-13T16:38:09.098Z,16.60
2022-10-13T16:40:40.362Z,16.40
2022-10-13T16:43:07.006Z,16.30
2022-10-13T16:45:48.246Z,16.20
2022-10-13T16:48:20.764Z,16.10
2022-10-13T16:50:47.693Z,16.00
2022-10-13T16:53:14.397Z,15.90
2022-10-13T16:55:42.377Z,15.80
2022-10-13T16:58:09.150Z,15.80
2022-10-13T17:00:37.365Z,15.70
2022-10-13T17:03:04.968Z,15.60
2022-10-13T17:05:31.889Z,15.60
2022-10-13T17:07:58.462Z,15.50
2022-10-13T17:10:25.273Z,15.40
2022-10-13T17:12:51.901Z,15.40
2022-10-13T17:15:19.024Z,15.30
2022-10-13T17:17:45.810Z,15.20
2022-10-13T17:20:13.207Z,15.20
2022-10-13T17:22:40.650Z,15.10
2022-10-13T17:25:07.933Z,15.00
2022-10-13T17:27:36.387Z,14.90
2022-10-13T17:30:04.378Z,14.90
2022-10-13T17:32:31.022Z,14.90
2022-10-13T17:34:57.656Z,14.80
2022-10-13T17:37:24.778Z,14.80
2022-10-13T17:39:51.882Z,14.70
2022-10-13T17:42:18.621Z,14.70
2022-10-13T17:44:49.307Z,14.60
2022-10-13T17:47:16.063Z,14.50
2022-10-13T17:49:42.838Z,14.40
2022-10-13T17:52:13.388Z,14.40
2022-10-13T17:54:40.012Z,14.30
2022-10-13T17:57:06.775Z,14.30
2022-10-13T17:59:33.471Z,14.30
2022-10-13T18:02:00.224Z,14.20
2022-10-13T18:04:28.910Z,14.10
2022-10-13T18:06:55.568Z,14.00
2022-10-13T18:09:24.504Z,13.90
2022-10-13T18:11:53.304Z,13.70
2022-10-13T18:14:21.920Z,13.60
2022-10-13T18:16:53.189Z,13.50
2022-10-13T18:19:21.247Z,13.50
2022-10-13T18:21:49.439Z,13.40
2022-10-13T18:24:16.613Z,13.40
2022-10-13T18:26:43.254Z,13.30
2022-10-13T18:29:11.801Z,13.30
2022-10-13T18:31:40.561Z,13.20
2022-10-13T18:34:10.783Z,13.20
2022-10-13T18:36:40.375Z,13.20
2022-10-13T18:39:14.310Z,13.20
2022-10-13T18:41:45.019Z,13.20
2022-10-13T18:44:12.169Z,13.10
2022-10-13T18:46:39.475Z,13.10
2022-10-13T18:49:08.495Z,13.10
2022-10-13T18:51:39.292Z,13.10
2022-10-13T18:54:07.391Z,13.10
2022-10-13T18:56:36.750Z,13.20
2022-10-13T18:59:05.195Z,13.20
2022-10-13T19:01:34.753Z,13.20
2022-10-13T19:04:01.540Z,13.20
2022-10-13T19:06:31.793Z,13.20
2022-10-13T19:09:00.934Z,13.20
2022-10-13T19:11:28.796Z,13.20
2022-10-13T19:13:55.822Z,13.10
2022-10-13T19:16:24.585Z,13.10
2022-10-13T19:18:51.825Z,13.00
2022-10-13T19:21:19.622Z,13.10
2022-10-13T19:23:46.354Z,13.10
2022-10-13T19:26:32.249Z,13.00
2022-10-13T19:29:02.143Z,13.00
2022-10-13T19:31:31.134Z,13.00
2022-10-13T19:33:59.193Z,13.10
2022-10-13T19:36:30.300Z,13.10
2022-10-13T19:39:01.264Z,13.10
2022-10-13T19:41:30.639Z,13.10
2022-10-13T19:43:57.990Z,13.10
2022-10-13T19:46:35.545Z,13.00
2022-10-13T19:49:03.512Z,13.00
2022-10-13T19:51:30.231Z,13.00
2022-10-13T19:53:56.923Z,13.00
2022-10-13T19:56:26.083Z,13.00
2022-10-13T19:58:53.285Z,13.00
2022-10-13T20:01:22.330Z,13.00
2022-10-13T20:03:49.683Z,12.90
2022-10-13T20:06:17.096Z,12.80
2022-10-13T20:08:44.955Z,12.70
2022-10-13T20:11:13.735Z,12.70
2022-10-13T20:13:42.606Z,12.70
2022-10-13T20:16:13.475Z,12.60
2022-10-13T20:18:41.217Z,12.70
2022-10-13T20:21:10.273Z,12.70
2022-10-13T20:23:37.705Z,12.60
2022-10-13T20:26:06.767Z,12.50
2022-10-13T20:28:39.217Z,12.50
2022-10-13T20:31:08.977Z,12.40
2022-10-13T20:33:35.648Z,12.40
2022-10-13T20:36:05.056Z,12.30
2022-10-13T20:38:32.731Z,12.30
2022-10-13T20:41:07.125Z,12.30
2022-10-13T20:43:34.657Z,12.20
2022-10-13T20:46:08.546Z,12.20
2022-10-13T20:48:58.173Z,12.20
2022-10-13T20:51:26.226Z,12.20
2022-10-13T20:53:53.042Z,12.10
2022-10-13T20:56:22.194Z,12.00
2022-10-13T20:58:49.389Z,11.90
2022-10-13T21:01:17.463Z,11.80
2022-10-13T21:03:44.235Z,11.80
2022-10-13T21:06:13.540Z,11.70
2022-10-13T21:08:40.542Z,11.70
2022-10-13T21:11:10.431Z,11.60
2022-10-13T21:13:38.394Z,11.60
2022-10-13T21:16:14.326Z,11.60
2022-10-13T21:18:45.726Z,11.50
2022-10-13T21:21:12.400Z,11.50
2022-10-13T21:23:40.907Z,11.40
2022-10-13T21:26:09.374Z,11.40
2022-10-13T21:28:38.593Z,11.30
2022-10-13T21:31:14.287Z,11.20
2022-10-13T21:33:42.073Z,11.20
2022-10-13T21:36:14.822Z,11.20
2022-10-13T21:38:42.201Z,11.30
2022-10-13T21:41:10.511Z,11.30
2022-10-13T21:43:37.426Z,11.30
2022-10-13T21:46:16.459Z,11.30
2022-10-13T21:48:44.633Z,11.30
2022-10-13T21:51:12.890Z,11.30
2022-10-13T21:53:39.549Z,11.30
2022-10-13T21:56:07.370Z,11.40
2022-10-13T21:58:34.867Z,11.40
2022-10-13T22:01:03.084Z,11.40
2022-10-13T22:03:30.849Z,11.50
2022-10-13T22:05:57.523Z,11.60
2022-10-13T22:08:37.709Z,11.70
2022-10-13T22:11:11.249Z,11.80
2022-10-13T22:13:38.750Z,11.80
2022-10-13T22:16:15.154Z,11.90
2022-10-13T22:18:42.114Z,11.90
2022-10-13T22:21:12.352Z,12.00
2022-10-13T22:23:38.984Z,11.90
2022-10-13T22:26:05.654Z,11.80
2022-10-13T22:28:36.762Z,11.70
2022-10-13T22:31:05.992Z,11.70
2022-10-13T22:33:35.101Z,11.70
2022-10-13T22:36:07.322Z,11.70
2022-10-13T22:38:34.006Z,11.80
2022-10-13T22:41:07.962Z,11.80
2022-10-13T22:43:35.446Z,11.90
2022-10-13T22:46:12.958Z,11.90
2022-10-13T22:48:41.098Z,11.90
2022-10-13T22:51:18.337Z,11.90
2022-10-13T22:53:45.426Z,11.90
2022-10-13T22:56:18.350Z,11.90
2022-10-13T22:58:49.826Z,11.90
2022-10-13T23:01:16.739Z,11.90
2022-10-13T23:03:47.949Z,11.90
2022-10-13T23:06:15.947Z,11.80
2022-10-13T23:08:42.840Z,11.80
2022-10-13T23:11:09.693Z,11.80
2022-10-13T23:13:36.789Z,11.80
2022-10-13T23:16:12.210Z,11.80
2022-10-13T23:18:42.217Z,11.80
2022-10-13T23:21:18.914Z,11.80
2022-10-13T23:23:45.870Z,11.80
2022-10-13T23:26:17.602Z,11.80
2022-10-13T23:28:44.842Z,11.90
2022-10-13T23:31:14.754Z,11.90
2022-10-13T23:33:41.860Z,11.90
2022-10-13T23:36:10.838Z,11.90
2022-10-13T23:38:39.431Z,12.00
2022-10-13T23:41:09.149Z,12.00
2022-10-13T23:43:36.459Z,12.10
2022-10-13T23:46:04.022Z,12.10
2022-10-13T23:48:31.081Z,12.20
2022-10-13T23:50:58.018Z,12.20
2022-10-13T23:53:24.935Z,12.20
2022-10-13T23:55:51.667Z,12.20
2022-10-13T23:58:25.213Z,12.20
